Time,TemperatureF,DewpointF,PressureIn,WindDirection,WindDirectionDegrees,WindSpeedMPH,WindSpeedGustMPH,Humidity,HourlyPrecipIn,Conditions,Clouds,dailyrainin,SolarRadiationWatts/m^2,SoftwareType,DateUTC
2013-08-01 00:01:00,63.0,57.0,30.01,West,271,1.0,3.0,82,0.00,,,0.00,0.000000,,2013-08-01 07:01:00,
2013-08-01 00:11:00,63.0,57.0,30.01,West,271,1.0,3.0,82,0.00,,,0.00,0.000000,,2013-08-01 07:11:00,
2013-08-01 00:22:00,63.0,57.0,30.00,West,271,2.0,3.0,82,0.00,,,0.00,0.000000,,2013-08-01 07:22:00,
2013-08-01 00:32:00,63.0,57.0,30.00,West,271,1.0,3.0,82,0.00,,,0.00,0.000000,,2013-08-01 07:32:00,
2013-08-01 00:43:00,63.0,58.0,30.00,West,271,1.0,3.0,83,0.00,,,0.00,0.000000,,2013-08-01 07:43:00,
2013-08-01 00:52:00,63.0,58.0,30.00,West,274,2.0,3.0,83,0.00,,,0.00,0.000000,,2013-08-01 07:52:00,
2013-08-01 01:02:00,63.0,58.0,30.00,West,274,0.0,2.0,83,0.00,,,0.00,0.000000,,2013-08-01 08:02:00,
2013-08-01 01:22:00,63.0,58.0,30.00,West,275,1.0,3.0,83,0.00,,,0.00,0.000000,,2013-08-01 08:22:00,
2013-08-01 01:32:00,63.0,58.0,30.00,West,275,0.0,1.0,83,0.00,,,0.00,0.000000,,2013-08-01 08:32:00,
2013-08-01 01:52:00,62.0,57.0,30.00,West,273,1.0,3.0,84,0.00,,,0.00,0.000000,,2013-08-01 08:52:00,
2013-08-01 03:02:00,63.0,58.0,29.99,West,281,1.0,3.0,84,0.00,,,0.00,0.000000,,2013-08-01 10:02:00,
2013-08-01 03:22:00,63.0,58.0,29.98,West,281,0.0,3.0,84,0.00,,,0.00,0.000000,,2013-08-01 10:22:00,
2013-08-01 03:32:00,63.0,58.0,29.98,West,281,0.0,1.0,84,0.00,,,0.00,0.000000,,2013-08-01 10:32:00,
2013-08-01 04:02:00,63.0,57.0,29.98,West,267,0.0,3.0,82,0.00,,,0.00,0.000000,,2013-08-01 11:02:00,
2013-08-01 04:12:00,63.0,57.0,29.98,West,267,2.0,3.0,82,0.00,,,0.00,0.000000,,2013-08-01 11:12:00,
2013-08-01 04:24:00,63.0,57.0,29.98,West,273,2.0,3.0,82,0.00,,,0.00,0.000000,,2013-08-01 11:24:00,
2013-08-01 05:02:00,63.0,57.0,29.98,WNW,285,0.0,3.0,82,0.00,,,0.00,0.000000,,2013-08-01 12:02:00,
2013-08-01 05:33:00,63.0,58.0,29.98,West,267,0.0,2.0,83,0.00,,,0.00,0.000000,,2013-08-01 12:33:00,
2013-08-01 06:02:00,63.0,58.0,29.99,WNW,300,1.0,5.0,83,0.00,,,0.00,0.000000,,2013-08-01 13:02:00,
2013-08-01 06:32:00,63.0,58.0,30.00,WNW,289,3.0,3.0,83,0.00,,,0.00,0.000000,,2013-08-01 13:32:00,
2013-08-01 08:52:00,64.0,58.0,30.02,WNW,284,0.0,5.0,81,0.00,,,0.00,53.000000,,2013-08-01 15:52:00,
2013-08-01 09:22:00,64.0,58.0,30.02,WSW,246,0.0,3.0,81,0.00,,,0.00,83.000000,,2013-08-01 16:22:00,
2013-08-01 09:32:00,64.0,58.0,30.02,WSW,246,1.0,2.0,80,0.00,,,0.00,84.000000,,2013-08-01 16:32:00,
2013-08-01 09:43:00,64.0,58.0,30.02,WSW,246,1.0,3.0,80,0.00,,,0.00,102.000000,,2013-08-01 16:43:00,
2013-08-01 09:52:00,64.0,58.0,30.02,WSW,240,1.0,6.0,80,0.00,,,0.00,118.000000,,2013-08-01 16:52:00,
2013-08-01 10:12:00,65.0,58.0,30.02,WSW,240,1.0,3.0,79,0.00,,,0.00,151.000000,,2013-08-01 17:12:00,
2013-08-01 10:22:00,65.0,58.0,30.02,West,271,3.0,6.0,78,0.00,,,0.00,179.000000,,2013-08-01 17:22:00,
2013-08-01 10:33:00,65.0,58.0,30.02,WNW,290,2.0,5.0,77,0.00,,,0.00,213.000000,,2013-08-01 17:33:00,
2013-08-01 10:53:00,66.0,59.0,30.02,West,281,1.0,3.0,77,0.00,,,0.00,288.000000,,2013-08-01 17:53:00,
2013-08-01 11:02:00,66.0,58.0,30.01,West,281,0.0,2.0,75,0.00,,,0.00,329.000000,,2013-08-01 18:02:00,
2013-08-01 11:12:00,67.0,58.0,30.01,WSW,256,2.0,3.0,74,0.00,,,0.00,360.000000,,2013-08-01 18:12:00,
2013-08-01 11:22:00,67.0,58.0,30.01,WSW,256,2.0,3.0,74,0.00,,,0.00,360.000000,,2013-08-01 18:22:00,
2013-08-01 11:53:00,70.0,59.0,30.01,South,186,5.0,8.0,69,0.00,,,0.00,788.000000,,2013-08-01 18:53:00,
2013-08-01 12:02:00,70.0,59.0,30.00,SE,132,3.0,6.0,67,0.00,,,0.00,844.000000,,2013-08-01 19:02:00,
2013-08-01 13:32:00,76.0,60.0,29.97,WSW,241,3.0,14.0,58,0.00,,,0.00,874.000000,,2013-08-01 20:32:00,
2013-08-01 13:52:00,76.0,60.0,29.96,WNW,289,4.0,9.0,57,0.00,,,0.00,858.000000,,2013-08-01 20:52:00,
2013-08-01 14:33:00,77.0,61.0,29.94,West,262,3.0,9.0,57,0.00,,,0.00,824.000000,,2013-08-01 21:33:00,
2013-08-01 14:52:00,77.0,60.0,29.94,South,187,5.0,12.0,56,0.00,,,0.00,831.000000,,2013-08-01 21:52:00,
2013-08-01 15:43:00,76.0,60.0,29.93,SW,220,7.0,12.0,58,0.00,,,0.00,726.000000,,2013-08-01 22:43:00,
2013-08-01 16:11:00,76.0,60.0,29.92,SSW,211,5.0,10.0,58,0.00,,,0.00,650.000000,,2013-08-01 23:11:00,
2013-08-01 16:22:00,76.0,61.0,29.91,SW,219,5.0,12.0,59,0.00,,,0.00,626.000000,,2013-08-01 23:22:00,
2013-08-01 16:42:00,77.0,61.0,29.91,SSW,202,5.0,9.0,57,0.00,,,0.00,573.000000,,2013-08-01 23:42:00,
2013-08-01 16:52:00,76.0,60.0,29.91,SSW,211,3.0,10.0,58,0.00,,,0.00,547.000000,,2013-08-01 23:52:00,
2013-08-01 17:02:00,77.0,61.0,29.91,SSW,208,3.0,10.0,57,0.00,,,0.00,515.000000,,2013-08-02 00:02:00,
2013-08-01 17:11:00,77.0,61.0,29.90,West,275,5.0,9.0,57,0.00,,,0.00,487.000000,,2013-08-02 00:11:00,
2013-08-01 17:43:00,77.0,60.0,29.89,WSW,258,6.0,12.0,56,0.00,,,0.00,397.000000,,2013-08-02 00:43:00,
2013-08-01 18:11:00,76.0,60.0,29.89,West,277,2.0,9.0,57,0.00,,,0.00,297.000000,,2013-08-02 01:11:00,
2013-08-01 18:52:00,74.0,59.0,29.89,West,272,5.0,10.0,60,0.00,,,0.00,172.000000,,2013-08-02 01:52:00,
2013-08-01 19:12:00,73.0,59.0,29.89,West,274,6.0,10.0,62,0.00,,,0.00,135.000000,,2013-08-02 02:12:00,
2013-08-01 19:33:00,71.0,59.0,29.90,WNW,289,5.0,10.0,65,0.00,,,0.00,46.000000,,2013-08-02 02:33:00,
2013-08-01 19:44:00,71.0,59.0,29.90,West,280,4.0,10.0,66,0.00,,,0.00,26.000000,,2013-08-02 02:44:00,
2013-08-01 19:52:00,71.0,59.0,29.90,West,280,4.0,10.0,66,0.00,,,0.00,26.000000,,2013-08-02 02:52:00,
2013-08-01 20:12:00,70.0,59.0,29.90,WNW,287,3.0,6.0,67,0.00,,,0.00,0.000000,,2013-08-02 03:12:00,
2013-08-01 20:22:00,70.0,59.0,29.90,WNW,287,3.0,6.0,67,0.00,,,0.00,0.000000,,2013-08-02 03:22:00,
2013-08-01 20:32:00,69.0,58.0,29.90,West,261,3.0,7.0,68,0.00,,,0.00,0.000000,,2013-08-02 03:32:00,
2013-08-01 20:42:00,69.0,58.0,29.90,West,275,3.0,6.0,69,0.00,,,0.00,0.000000,,2013-08-02 03:42:00,
2013-08-01 20:56:00,69.0,59.0,29.90,WNW,286,5.0,8.0,70,0.00,,,0.00,0.000000,,2013-08-02 03:56:00,
2013-08-01 21:01:00,68.0,58.0,29.91,West,265,4.0,8.0,70,0.00,,,0.00,0.000000,,2013-08-02 04:01:00,
2013-08-01 21:12:00,68.0,58.0,29.91,West,273,3.0,6.0,71,0.00,,,0.00,0.000000,,2013-08-02 04:12:00,
2013-08-01 21:21:00,68.0,58.0,29.91,West,273,3.0,6.0,71,0.00,,,0.00,0.000000,,2013-08-02 04:21:00,
2013-08-01 21:43:00,67.0,58.0,29.91,NW,315,2.0,5.0,73,0.00,,,0.00,0.000000,,2013-08-02 04:43:00,
2013-08-01 21:53:00,67.0,58.0,29.92,WNW,287,2.0,3.0,73,0.00,,,0.00,0.000000,,2013-08-02 04:53:00,
2013-08-01 22:02:00,67.0,58.0,29.92,West,277,3.0,3.0,74,0.00,,,0.00,0.000000,,2013-08-02 05:02:00,
2013-08-01 22:12:00,67.0,58.0,29.92,West,277,1.0,3.0,74,0.00,,,0.00,0.000000,,2013-08-02 05:12:00,
2013-08-01 22:21:00,67.0,59.0,29.92,West,277,0.0,3.0,75,0.00,,,0.00,0.000000,,2013-08-02 05:21:00,
2013-08-01 22:32:00,66.0,58.0,29.92,West,277,0.0,2.0,75,0.00,,,0.00,0.000000,,2013-08-02 05:32:00,
2013-08-01 22:43:00,66.0,58.0,29.92,West,277,1.0,2.0,76,0.00,,,0.00,0.000000,,2013-08-02 05:43:00,
2013-08-01 22:52:00,66.0,58.0,29.92,West,277,1.0,2.0,76,0.00,,,0.00,0.000000,,2013-08-02 05:52:00,
2013-08-01 23:02:00,66.0,58.0,29.92,West,277,0.0,2.0,76,0.00,,,0.00,0.000000,,2013-08-02 06:02:00,
2013-08-01 23:22:00,66.0,59.0,29.93,West,277,0.0,2.0,77,0.00,,,0.00,0.000000,,2013-08-02 06:22:00,
2013-08-01 23:33:00,66.0,59.0,29.93,West,277,1.0,3.0,77,0.00,,,0.00,0.000000,,2013-08-02 06:33:00,
2013-08-01 23:43:00,66.0,59.0,29.93,West,277,1.0,3.0,77,0.00,,,0.00,0.000000,,2013-08-02 06:43:00,
2013-08-01 23:52:00,65.0,58.0,29.93,South,183,1.0,6.0,79,0.00,,,0.00,0.000000,,2013-08-02 06:52:00,